createdAt,value
2022-09-29T00:01:07.442Z,100.00
2022-09-29T00:03:36.559Z,100.00
2022-09-29T00:06:03.807Z,100.00
2022-09-29T00:08:31.611Z,100.00
2022-09-29T00:10:58.828Z,100.00
2022-09-29T00:13:26.114Z,100.00
2022-09-29T00:16:00.121Z,100.00
2022-09-29T00:18:29.386Z,100.00
2022-09-29T00:21:17.251Z,100.00
2022-09-29T00:23:48.806Z,100.00
2022-09-29T00:26:19.356Z,100.00
2022-09-29T00:28:57.822Z,100.00
2022-09-29T00:31:29.225Z,100.00
2022-09-29T00:33:57.681Z,100.00
2022-09-29T00:36:29.986Z,100.00
2022-09-29T00:38:58.346Z,100.00
2022-09-29T00:41:43.620Z,100.00
2022-09-29T00:44:13.691Z,100.00
2022-09-29T00:46:48.343Z,100.00
2022-09-29T00:49:19.692Z,100.00
2022-09-29T00:51:59.811Z,100.00
2022-09-29T00:54:32.668Z,100.00
2022-09-29T00:57:02.929Z,100.00
2022-09-29T00:59:50.329Z,100.00
2022-09-29T01:02:19.682Z,100.00
2022-09-29T01:04:52.014Z,100.00
2022-09-29T01:07:24.541Z,100.00
2022-09-29T01:09:55.306Z,100.00
2022-09-29T01:12:23.985Z,100.00
2022-09-29T01:14:54.335Z,100.00
2022-09-29T01:17:23.245Z,100.00
2022-09-29T01:20:17.161Z,100.00
2022-09-29T01:23:36.142Z,100.00
2022-09-29T01:26:33.908Z,100.00
2022-09-29T01:29:47.094Z,100.00
2022-09-29T01:32:40.970Z,100.00
2022-09-29T01:35:27.804Z,100.00
2022-09-29T01:38:38.080Z,100.00
2022-09-29T01:41:44.121Z,100.00
2022-09-29T01:44:28.952Z,100.00
2022-09-29T01:47:34.765Z,100.00
2022-09-29T01:50:13.477Z,100.00
2022-09-29T01:52:55.689Z,100.00
2022-09-29T01:55:28.875Z,100.00
2022-09-29T01:58:17.267Z,100.00
2022-09-29T02:00:51.746Z,100.00
2022-09-29T02:03:35.425Z,100.00
2022-09-29T02:06:13.336Z,100.00
2022-09-29T02:09:02.233Z,100.00
2022-09-29T02:11:34.027Z,100.00
2022-09-29T02:14:18.597Z,100.00
2022-09-29T02:17:01.823Z,100.00
2022-09-29T02:19:34.336Z,100.00
2022-09-29T02:22:01.505Z,100.00
2022-09-29T02:24:28.627Z,100.00
2022-09-29T02:26:58.549Z,100.00
2022-09-29T02:29:28.472Z,100.00
2022-09-29T02:32:01.853Z,100.00
2022-09-29T02:34:34.304Z,100.00
2022-09-29T02:37:38.504Z,100.00
2022-09-29T02:40:48.731Z,100.00
2022-09-29T02:43:55.540Z,100.00
2022-09-29T02:46:51.928Z,100.00
2022-09-29T02:49:43.839Z,100.00
2022-09-29T02:52:31.753Z,100.00
2022-09-29T02:55:28.734Z,100.00
2022-09-29T02:58:10.536Z,100.00
2022-09-29T03:00:38.791Z,100.00
2022-09-29T03:03:05.937Z,100.00
2022-09-29T03:05:33.664Z,100.00
2022-09-29T03:08:01.023Z,100.00
2022-09-29T03:10:30.385Z,100.00
2022-09-29T03:12:57.642Z,100.00
2022-09-29T03:15:24.744Z,100.00
2022-09-29T03:17:57.102Z,100.00
2022-09-29T03:20:24.512Z,100.00
2022-09-29T03:22:56.123Z,100.00
2022-09-29T03:25:26.106Z,100.00
2022-09-29T03:27:53.293Z,100.00
2022-09-29T03:30:20.431Z,100.00
2022-09-29T03:32:47.684Z,100.00
2022-09-29T03:35:15.197Z,100.00
2022-09-29T03:37:43.005Z,100.00
2022-09-29T03:40:10.798Z,100.00
2022-09-29T03:42:38.112Z,100.00
2022-09-29T03:45:06.099Z,100.00
2022-09-29T03:47:33.388Z,100.00
2022-09-29T03:50:00.547Z,100.00
2022-09-29T03:52:27.670Z,100.00
2022-09-29T03:54:54.766Z,100.00
2022-09-29T03:57:21.889Z,100.00
2022-09-29T03:59:49.681Z,100.00
2022-09-29T04:02:18.382Z,100.00
2022-09-29T04:04:48.845Z,100.00
2022-09-29T04:07:15.999Z,100.00
2022-09-29T04:09:43.325Z,100.00
2022-09-29T04:12:10.560Z,100.00
2022-09-29T04:14:37.693Z,100.00
2022-09-29T04:17:04.854Z,100.00
2022-09-29T04:19:32.003Z,100.00
2022-09-29T04:21:59.149Z,100.00
2022-09-29T04:24:26.385Z,100.00
2022-09-29T04:26:53.489Z,100.00
2022-09-29T04:29:20.778Z,100.00
2022-09-29T04:31:48.422Z,100.00
2022-09-29T04:34:18.707Z,100.00
2022-09-29T04:36:46.230Z,100.00
2022-09-29T04:39:16.191Z,100.00
2022-09-29T04:41:46.273Z,100.00
2022-09-29T04:44:15.685Z,100.00
2022-09-29T04:46:42.818Z,100.00
2022-09-29T04:49:09.931Z,100.00
2022-09-29T04:51:37.298Z,100.00
2022-09-29T04:54:04.730Z,100.00
2022-09-29T04:56:31.838Z,100.00
2022-09-29T04:58:59.186Z,100.00
2022-09-29T05:01:27.386Z,100.00
2022-09-29T05:03:54.668Z,100.00
2022-09-29T05:06:21.982Z,100.00
2022-09-29T05:08:49.595Z,100.00
2022-09-29T05:11:16.723Z,100.00
2022-09-29T05:13:44.002Z,100.00
2022-09-29T05:16:11.198Z,100.00
2022-09-29T05:18:38.367Z,100.00
2022-09-29T05:21:26.930Z,100.00
2022-09-29T05:23:55.680Z,100.00
2022-09-29T05:26:23.112Z,100.00
2022-09-29T05:28:50.292Z,100.00
2022-09-29T05:31:18.130Z,100.00
2022-09-29T05:33:45.504Z,100.00
2022-09-29T05:36:13.626Z,100.00
2022-09-29T05:38:40.891Z,100.00
2022-09-29T05:41:12.282Z,100.00
2022-09-29T05:43:40.735Z,100.00
2022-09-29T05:46:10.758Z,100.00
2022-09-29T05:48:38.403Z,100.00
2022-09-29T05:51:22.438Z,100.00
2022-09-29T05:53:51.662Z,100.00
2022-09-29T05:56:25.509Z,100.00
2022-09-29T05:58:53.664Z,100.00
2022-09-29T06:01:24.547Z,100.00
2022-09-29T06:03:56.948Z,100.00
2022-09-29T06:06:27.749Z,100.00
2022-09-29T06:08:57.569Z,100.00
2022-09-29T06:11:33.462Z,100.00
2022-09-29T06:14:02.677Z,100.00
2022-09-29T06:16:49.964Z,100.00
2022-09-29T06:19:20.401Z,100.00
2022-09-29T06:21:50.290Z,100.00
2022-09-29T06:24:17.917Z,100.00
2022-09-29T06:26:45.171Z,100.00
2022-09-29T06:29:12.265Z,100.00
2022-09-29T06:31:39.500Z,100.00
2022-09-29T06:34:06.838Z,100.00
2022-09-29T06:36:57.490Z,100.00
2022-09-29T06:39:24.772Z,100.00
2022-09-29T06:41:56.265Z,100.00
2022-09-29T06:44:27.809Z,100.00
2022-09-29T06:46:55.801Z,100.00
2022-09-29T06:49:24.106Z,100.00
2022-09-29T06:51:52.037Z,100.00
2022-09-29T06:54:26.304Z,100.00
2022-09-29T06:56:55.219Z,100.00
2022-09-29T06:59:22.689Z,100.00
2022-09-29T07:01:51.055Z,100.00
2022-09-29T07:04:21.113Z,100.00
2022-09-29T07:06:49.535Z,100.00
2022-09-29T07:09:17.721Z,100.00
2022-09-29T07:11:49.898Z,100.00
2022-09-29T07:14:19.879Z,100.00
2022-09-29T07:16:48.443Z,100.00
2022-09-29T07:19:18.273Z,100.00
2022-09-29T07:21:47.147Z,100.00
2022-09-29T07:24:14.899Z,100.00
2022-09-29T07:26:42.334Z,100.00
2022-09-29T07:29:15.077Z,100.00
2022-09-29T07:31:51.305Z,100.00
2022-09-29T07:34:21.553Z,100.00
2022-09-29T07:36:49.613Z,100.00
2022-09-29T07:39:17.620Z,100.00
2022-09-29T07:41:44.958Z,100.00
2022-09-29T07:44:12.102Z,100.00
2022-09-29T07:46:39.285Z,100.00
2022-09-29T07:49:06.704Z,100.00
2022-09-29T07:51:33.764Z,100.00
2022-09-29T07:54:05.183Z,100.00
2022-09-29T07:56:33.220Z,100.00
2022-09-29T07:59:02.447Z,100.00
2022-09-29T08:01:30.091Z,100.00
2022-09-29T08:03:57.561Z,100.00
2022-09-29T08:06:26.711Z,100.00
2022-09-29T08:09:03.460Z,100.00
2022-09-29T08:11:36.852Z,100.00
2022-09-29T08:14:04.269Z,100.00
2022-09-29T08:16:32.521Z,100.00
2022-09-29T08:19:01.338Z,100.00
2022-09-29T08:21:30.154Z,100.00
2022-09-29T08:23:57.516Z,100.00
2022-09-29T08:26:37.154Z,100.00
2022-09-29T08:29:09.100Z,100.00
2022-09-29T08:31:38.457Z,100.00
2022-09-29T08:34:07.089Z,100.00
2022-09-29T08:36:34.370Z,100.00
2022-09-29T08:39:01.557Z,100.00
2022-09-29T08:41:59.577Z,100.00
2022-09-29T08:45:04.811Z,100.00
2022-09-29T08:47:47.658Z,100.00
2022-09-29T08:50:41.000Z,100.00
2022-09-29T08:53:23.966Z,100.00
2022-09-29T08:56:05.110Z,100.00
2022-09-29T08:58:33.883Z,100.00
2022-09-29T09:01:40.754Z,100.00
2022-09-29T09:04:35.750Z,100.00
2022-09-29T09:07:51.461Z,100.00
2022-09-29T09:10:31.170Z,100.00
2022-09-29T09:13:30.552Z,100.00
2022-09-29T09:16:54.260Z,100.00
2022-09-29T09:19:36.568Z,100.00
2022-09-29T09:22:24.831Z,100.00
2022-09-29T09:25:24.988Z,100.00
2022-09-29T09:28:20.406Z,100.00
2022-09-29T09:31:06.627Z,100.00
2022-09-29T09:34:00.803Z,100.00
2022-09-29T09:37:03.811Z,100.00
2022-09-29T09:39:37.442Z,100.00
2022-09-29T09:42:16.028Z,100.00
2022-09-29T09:45:00.893Z,100.00
2022-09-29T09:47:53.347Z,100.00
2022-09-29T09:50:25.334Z,100.00
2022-09-29T09:52:56.399Z,100.00
2022-09-29T09:55:30.281Z,100.00
2022-09-29T09:58:00.402Z,100.00
2022-09-29T10:00:52.314Z,100.00
2022-09-29T10:03:19.721Z,100.00
2022-09-29T10:05:49.143Z,100.00
2022-09-29T10:08:23.110Z,100.00
2022-09-29T10:10:58.064Z,100.00
2022-09-29T10:13:30.485Z,100.00
2022-09-29T10:16:23.993Z,100.00
2022-09-29T10:18:55.105Z,100.00
2022-09-29T10:21:44.228Z,100.00
2022-09-29T10:24:30.973Z,100.00
2022-09-29T10:27:01.726Z,100.00
2022-09-29T10:29:49.427Z,100.00
2022-09-29T10:32:36.641Z,100.00
2022-09-29T10:35:26.569Z,100.00
2022-09-29T10:38:05.350Z,100.00
2022-09-29T10:40:32.656Z,100.00
2022-09-29T10:43:23.825Z,100.00
2022-09-29T10:45:51.035Z,100.00
2022-09-29T10:48:19.014Z,100.00
2022-09-29T10:51:04.161Z,100.00
2022-09-29T10:53:38.715Z,100.00
2022-09-29T10:56:22.441Z,100.00
2022-09-29T10:59:01.827Z,100.00
2022-09-29T11:01:44.478Z,100.00
2022-09-29T11:04:39.939Z,100.00
2022-09-29T11:07:12.379Z,100.00
2022-09-29T11:09:43.546Z,100.00
2022-09-29T11:12:32.040Z,100.00
2022-09-29T11:15:39.153Z,100.00
2022-09-29T11:18:39.532Z,100.00
2022-09-29T11:21:21.714Z,100.00
2022-09-29T11:24:03.649Z,100.00
2022-09-29T11:26:55.909Z,100.00
2022-09-29T11:29:37.627Z,100.00
2022-09-29T11:32:43.867Z,100.00
2022-09-29T11:35:14.015Z,100.00
2022-09-29T11:37:58.015Z,100.00
2022-09-29T11:41:11.022Z,100.00
2022-09-29T11:44:16.259Z,100.00
2022-09-29T11:46:58.209Z,100.00
2022-09-29T11:49:56.051Z,100.00
2022-09-29T11:52:56.517Z,100.00
2022-09-29T11:56:02.336Z,100.00
2022-09-29T11:58:52.881Z,100.00
2022-09-29T12:01:59.895Z,100.00
2022-09-29T12:05:01.195Z,100.00
2022-09-29T12:08:08.604Z,100.00
2022-09-29T12:11:41.972Z,100.00
2022-09-29T12:14:30.052Z,99.87
2022-09-29T12:17:04.577Z,98.63
2022-09-29T12:19:39.833Z,100.00
2022-09-29T12:22:14.909Z,100.00
2022-09-29T12:24:54.387Z,98.38
2022-09-29T12:27:34.798Z,100.00
2022-09-29T12:30:29.731Z,98.24
2022-09-29T12:33:19.254Z,100.00
2022-09-29T12:36:36.857Z,90.97
2022-09-29T12:39:34.232Z,98.24
2022-09-29T12:43:03.500Z,100.00
2022-09-29T12:45:54.166Z,100.00
2022-09-29T12:49:31.052Z,100.00
2022-09-29T12:51:58.498Z,100.00
2022-09-29T12:54:34.740Z,100.00
2022-09-29T12:57:17.856Z,100.00
2022-09-29T13:00:00.088Z,94.76
2022-09-29T13:02:52.116Z,99.61
2022-09-29T13:05:53.316Z,95.49
2022-09-29T13:08:48.253Z,92.40
2022-09-29T13:11:21.529Z,99.08
2022-09-29T13:13:54.453Z,94.05
2022-09-29T13:16:56.722Z,99.69
2022-09-29T13:19:58.722Z,95.34
2022-09-29T13:23:11.590Z,100.00
2022-09-29T13:25:56.705Z,95.94
2022-09-29T13:28:38.974Z,94.89
2022-09-29T13:31:14.163Z,92.94
2022-09-29T13:33:46.851Z,95.36
2022-09-29T13:36:25.815Z,100.00
2022-09-29T13:39:00.025Z,100.00
2022-09-29T13:41:30.133Z,100.00
2022-09-29T13:43:57.169Z,98.44
2022-09-29T13:46:30.158Z,100.00
2022-09-29T13:49:09.607Z,100.00
2022-09-29T13:51:50.560Z,100.00
2022-09-29T13:54:23.839Z,100.00
2022-09-29T13:57:13.408Z,100.00
2022-09-29T13:59:44.741Z,93.20
2022-09-29T14:02:37.033Z,100.00
2022-09-29T14:05:24.063Z,97.56
2022-09-29T14:07:57.495Z,99.57
2022-09-29T14:10:43.351Z,95.13
2022-09-29T14:13:25.177Z,92.58
2022-09-29T14:16:21.211Z,94.09
2022-09-29T14:19:02.753Z,99.10
2022-09-29T14:21:51.991Z,98.91
2022-09-29T14:24:37.362Z,97.65
2022-09-29T14:27:33.031Z,90.77
2022-09-29T14:30:08.941Z,87.95
2022-09-29T14:33:02.362Z,92.36
2022-09-29T14:35:39.555Z,85.46
2022-09-29T14:38:13.145Z,83.30
2022-09-29T14:41:13.619Z,79.85
2022-09-29T14:43:58.566Z,85.94
2022-09-29T14:46:50.051Z,85.23
2022-09-29T14:50:12.711Z,78.49
2022-09-29T14:53:25.272Z,80.99
2022-09-29T14:56:10.984Z,81.03
2022-09-29T14:58:47.273Z,82.24
2022-09-29T15:01:29.231Z,85.50
2022-09-29T15:04:19.714Z,86.64
2022-09-29T15:06:50.504Z,83.76
2022-09-29T15:09:22.325Z,88.06
2022-09-29T15:11:52.786Z,88.47
2022-09-29T15:14:28.176Z,90.83
2022-09-29T15:17:29.346Z,91.49
2022-09-29T15:20:14.308Z,88.55
2022-09-29T15:23:08.937Z,89.92
2022-09-29T15:25:45.004Z,87.33
2022-09-29T15:28:22.477Z,86.18
2022-09-29T15:30:54.678Z,88.54
2022-09-29T15:33:36.683Z,83.01
2022-09-29T15:36:18.795Z,80.39
2022-09-29T15:38:46.035Z,85.44
2022-09-29T15:41:18.937Z,82.49
2022-09-29T15:44:17.863Z,77.32
2022-09-29T15:46:51.508Z,77.91
2022-09-29T15:49:26.506Z,80.98
2022-09-29T15:52:14.971Z,79.07
2022-09-29T15:54:47.626Z,75.73
2022-09-29T15:57:42.981Z,75.68
2022-09-29T16:00:37.250Z,77.90
2022-09-29T16:03:37.251Z,77.61
2022-09-29T16:06:15.134Z,80.99
2022-09-29T16:08:55.285Z,84.50
2022-09-29T16:11:31.647Z,87.41
2022-09-29T16:14:14.495Z,89.95
2022-09-29T16:16:46.046Z,91.27
2022-09-29T16:19:28.712Z,95.03
2022-09-29T16:22:04.986Z,97.31
2022-09-29T16:24:50.424Z,97.10
2022-09-29T16:27:57.857Z,98.88
2022-09-29T16:30:33.398Z,100.00
2022-09-29T16:33:13.889Z,100.00
2022-09-29T16:35:54.442Z,100.00
2022-09-29T16:38:47.665Z,100.00
2022-09-29T16:41:36.747Z,100.00
2022-09-29T16:44:18.420Z,100.00
2022-09-29T16:46:50.817Z,100.00
2022-09-29T16:49:31.764Z,100.00
2022-09-29T16:52:15.814Z,100.00
2022-09-29T16:54:45.838Z,100.00
2022-09-29T16:57:30.425Z,100.00
2022-09-29T17:00:07.835Z,100.00
2022-09-29T17:02:34.989Z,100.00
2022-09-29T17:05:05.038Z,100.00
2022-09-29T17:07:38.422Z,100.00
2022-09-29T17:10:07.445Z,100.00
2022-09-29T17:12:34.550Z,100.00
2022-09-29T17:15:01.687Z,100.00
2022-09-29T17:17:29.195Z,100.00
2022-09-29T17:19:56.765Z,100.00
2022-09-29T17:22:29.099Z,100.00
2022-09-29T17:24:56.894Z,100.00
2022-09-29T17:27:55.158Z,100.00
2022-09-29T17:30:25.408Z,100.00
2022-09-29T17:32:58.937Z,100.00
2022-09-29T17:35:37.776Z,100.00
2022-09-29T17:38:09.528Z,100.00
2022-09-29T17:40:49.907Z,100.00
2022-09-29T17:43:18.440Z,100.00
2022-09-29T17:45:46.922Z,100.00
2022-09-29T17:48:15.270Z,100.00
2022-09-29T17:50:49.223Z,100.00
2022-09-29T17:53:18.595Z,100.00
2022-09-29T17:55:51.876Z,100.00
2022-09-29T17:58:20.704Z,100.00
2022-09-29T18:00:51.489Z,100.00
2022-09-29T18:03:21.269Z,100.00
2022-09-29T18:05:58.551Z,100.00
2022-09-29T18:08:29.260Z,100.00
2022-09-29T18:11:01.791Z,100.00
2022-09-29T18:13:33.706Z,100.00
2022-09-29T18:16:02.044Z,100.00
2022-09-29T18:18:29.392Z,100.00
2022-09-29T18:20:56.592Z,100.00
2022-09-29T18:23:24.084Z,100.00
2022-09-29T18:25:52.643Z,100.00
2022-09-29T18:28:20.100Z,100.00
2022-09-29T18:31:01.689Z,100.00
2022-09-29T18:33:29.020Z,100.00
2022-09-29T18:35:56.153Z,100.00
2022-09-29T18:38:23.575Z,100.00
2022-09-29T18:40:55.705Z,100.00
2022-09-29T18:43:27.410Z,100.00
2022-09-29T18:45:56.215Z,100.00
2022-09-29T18:48:23.732Z,100.00
2022-09-29T18:50:53.398Z,100.00
2022-09-29T18:53:22.229Z,100.00
2022-09-29T18:55:55.917Z,100.00
2022-09-29T18:58:23.308Z,100.00
2022-09-29T19:00:55.026Z,100.00
2022-09-29T19:03:26.349Z,100.00
2022-09-29T19:05:54.803Z,100.00
2022-09-29T19:08:22.238Z,100.00
2022-09-29T19:11:01.104Z,100.00
2022-09-29T19:13:30.283Z,100.00
2022-09-29T19:15:59.364Z,100.00
2022-09-29T19:18:27.251Z,100.00
2022-09-29T19:20:58.467Z,100.00
2022-09-29T19:23:26.963Z,100.00
2022-09-29T19:25:58.519Z,100.00
2022-09-29T19:28:27.320Z,100.00
2022-09-29T19:31:04.831Z,100.00
2022-09-29T19:33:32.094Z,100.00
2022-09-29T19:36:05.061Z,100.00
2022-09-29T19:38:32.289Z,100.00
2022-09-29T19:41:00.067Z,100.00
2022-09-29T19:43:27.425Z,100.00
2022-09-29T19:45:54.612Z,100.00
2022-09-29T19:48:23.283Z,100.00
2022-09-29T19:51:17.554Z,100.00
2022-09-29T19:53:47.377Z,100.00
2022-09-29T19:56:17.995Z,100.00
2022-09-29T19:58:45.149Z,100.00
2022-09-29T20:01:12.806Z,100.00
2022-09-29T20:03:40.292Z,100.00
2022-09-29T20:06:07.572Z,100.00
2022-09-29T20:08:34.883Z,100.00
2022-09-29T20:11:08.310Z,100.00
2022-09-29T20:13:35.542Z,100.00
2022-09-29T20:16:04.191Z,100.00
2022-09-29T20:18:34.619Z,100.00
2022-09-29T20:21:15.266Z,100.00
2022-09-29T20:23:42.348Z,100.00
2022-09-29T20:26:09.933Z,100.00
2022-09-29T20:28:37.788Z,100.00
2022-09-29T20:31:07.524Z,100.00
2022-09-29T20:33:36.476Z,100.00
2022-09-29T20:36:05.825Z,100.00
2022-09-29T20:38:39.453Z,100.00
2022-09-29T20:41:07.402Z,100.00
2022-09-29T20:43:34.764Z,100.00
2022-09-29T20:46:05.921Z,100.00
2022-09-29T20:48:39.106Z,100.00
2022-09-29T20:51:15.287Z,100.00
2022-09-29T20:53:49.990Z,100.00
2022-09-29T20:56:18.317Z,100.00
2022-09-29T20:58:49.159Z,100.00
2022-09-29T21:01:22.135Z,100.00
2022-09-29T21:04:06.726Z,100.00
2022-09-29T21:06:37.592Z,100.00
2022-09-29T21:09:06.823Z,100.00
2022-09-29T21:11:39.748Z,100.00
2022-09-29T21:14:11.196Z,100.00
2022-09-29T21:16:45.255Z,100.00
2022-09-29T21:19:13.465Z,100.00
2022-09-29T21:21:41.475Z,100.00
2022-09-29T21:24:09.097Z,100.00
2022-09-29T21:26:36.886Z,100.00
2022-09-29T21:29:04.818Z,100.00
2022-09-29T21:31:34.453Z,100.00
2022-09-29T21:34:07.180Z,100.00
2022-09-29T21:36:37.009Z,100.00
2022-09-29T21:39:08.508Z,100.00
2022-09-29T21:41:39.237Z,100.00
2022-09-29T21:44:13.173Z,100.00
2022-09-29T21:46:41.803Z,100.00
2022-09-29T21:49:11.325Z,100.00
2022-09-29T21:51:42.303Z,100.00
2022-09-29T21:54:19.053Z,100.00
2022-09-29T21:56:47.735Z,100.00
2022-09-29T21:59:17.751Z,100.00
2022-09-29T22:01:48.443Z,100.00
2022-09-29T22:04:16.447Z,100.00
2022-09-29T22:06:45.279Z,100.00
2022-09-29T22:09:18.010Z,100.00
2022-09-29T22:11:48.181Z,100.00
2022-09-29T22:14:16.728Z,100.00
2022-09-29T22:16:45.195Z,100.00
2022-09-29T22:19:28.471Z,100.00
2022-09-29T22:21:55.780Z,100.00
2022-09-29T22:24:24.081Z,100.00
2022-09-29T22:26:51.935Z,100.00
2022-09-29T22:29:20.389Z,100.00
2022-09-29T22:31:47.789Z,100.00
2022-09-29T22:34:15.317Z,100.00
2022-09-29T22:36:42.544Z,100.00
2022-09-29T22:39:10.633Z,100.00
2022-09-29T22:41:39.790Z,100.00
2022-09-29T22:44:07.810Z,100.00
2022-09-29T22:46:35.890Z,100.00
2022-09-29T22:49:03.835Z,100.00
2022-09-29T22:51:31.018Z,100.00
2022-09-29T22:53:58.148Z,100.00
2022-09-29T22:56:28.932Z,100.00
2022-09-29T22:59:01.724Z,100.00
2022-09-29T23:01:29.240Z,100.00
2022-09-29T23:03:56.496Z,100.00
2022-09-29T23:06:23.674Z,100.00
2022-09-29T23:08:50.930Z,100.00
2022-09-29T23:11:20.107Z,100.00
2022-09-29T23:13:47.904Z,100.00
2022-09-29T23:16:16.874Z,100.00
2022-09-29T23:18:45.876Z,100.00
2022-09-29T23:21:20.081Z,100.00
2022-09-29T23:24:02.194Z,100.00
2022-09-29T23:26:30.690Z,100.00
2022-09-29T23:28:58.623Z,100.00
2022-09-29T23:31:27.160Z,100.00
2022-09-29T23:33:59.858Z,100.00
2022-09-29T23:36:30.312Z,100.00
2022-09-29T23:39:09.862Z,100.00
2022-09-29T23:41:48.861Z,100.00
2022-09-29T23:44:20.336Z,100.00
2022-09-29T23:46:47.808Z,100.00
2022-09-29T23:49:19.589Z,100.00
2022-09-29T23:51:52.410Z,100.00
2022-09-29T23:54:23.297Z,100.00
2022-09-29T23:56:52.829Z,100.00
2022-09-29T23:59:20.618Z,100.00
